createdAt,value
2023-03-29T00:28:38.269Z,100888.27
2023-03-29T00:32:42.163Z,100886.02
2023-03-29T00:41:18.197Z,100880.85
2023-03-29T01:46:30.804Z,100840.06
2023-03-29T02:13:55.468Z,100831.40
2023-03-29T02:18:04.315Z,100824.48
2023-03-29T02:26:53.014Z,100813.87
2023-03-29T02:45:14.977Z,100800.58
2023-03-29T02:54:12.101Z,100786.42
2023-03-29T03:11:50.689Z,100768.01
2023-03-29T03:25:37.640Z,100759.96
2023-03-29T03:30:15.230Z,100757.64
2023-03-29T03:49:25.815Z,100745.66
2023-03-29T04:02:50.208Z,100746.27
2023-03-29T04:07:02.788Z,100742.77
2023-03-29T04:11:07.918Z,100742.86
2023-03-29T04:24:16.316Z,100736.47
2023-03-29T04:28:20.210Z,100735.94
2023-03-29T04:32:26.038Z,100738.72
2023-03-29T04:36:34.445Z,100733.63
2023-03-29T04:40:38.570Z,100729.02
2023-03-29T04:44:43.953Z,100726.85
2023-03-29T04:48:48.174Z,100727.89
2023-03-29T04:52:51.915Z,100720.48
2023-03-29T04:56:56.912Z,100716.94
2023-03-29T05:01:01.395Z,100713.20
2023-03-29T05:05:07.442Z,100705.48
2023-03-29T05:09:10.897Z,100701.87
2023-03-29T05:13:14.821Z,100700.84
2023-03-29T05:17:18.308Z,100697.45
2023-03-29T05:21:22.253Z,100690.42
2023-03-29T05:25:26.584Z,100690.89
2023-03-29T05:29:30.168Z,100693.66
2023-03-29T05:33:34.822Z,100689.73
2023-03-29T05:37:39.295Z,100683.08
2023-03-29T05:41:43.622Z,100684.77
2023-03-29T05:45:51.034Z,100688.66
2023-03-29T05:49:54.978Z,100688.54
2023-03-29T05:53:59.153Z,100684.94
2023-03-29T05:58:03.208Z,100687.58
2023-03-29T06:02:07.182Z,100683.80
2023-03-29T06:06:11.563Z,100677.75
2023-03-29T06:10:16.533Z,100674.11
2023-03-29T06:14:21.097Z,100669.55
2023-03-29T06:18:24.862Z,100668.48
2023-03-29T06:22:28.844Z,100668.54
2023-03-29T06:26:32.458Z,100665.61
2023-03-29T06:30:35.778Z,100665.89
2023-03-29T06:34:39.236Z,100666.93
2023-03-29T06:38:45.785Z,100664.06
2023-03-29T06:42:49.176Z,100665.83
2023-03-29T06:46:52.715Z,100665.34
2023-03-29T06:50:56.805Z,100663.61
2023-03-29T06:55:02.055Z,100654.98
2023-03-29T06:59:05.585Z,100653.59
2023-03-29T07:03:13.616Z,100651.31
2023-03-29T07:07:22.824Z,100654.41
2023-03-29T07:11:26.478Z,100652.46
2023-03-29T07:15:30.495Z,100649.32
2023-03-29T07:19:34.281Z,100650.77
2023-03-29T07:23:37.770Z,100648.48
2023-03-29T07:27:42.937Z,100643.52
2023-03-29T07:31:46.277Z,100644.73
2023-03-29T07:35:51.212Z,100643.98
2023-03-29T07:39:55.195Z,100643.59
2023-03-29T07:44:04.375Z,100637.83
2023-03-29T07:48:08.692Z,100634.15
2023-03-29T07:52:13.209Z,100630.32
2023-03-29T07:56:16.839Z,100629.54
2023-03-29T08:00:21.269Z,100623.95
2023-03-29T08:04:24.892Z,100626.20
2023-03-29T08:08:29.287Z,100624.54
2023-03-29T08:12:32.613Z,100622.81
2023-03-29T08:16:36.015Z,100618.27
2023-03-29T08:20:39.364Z,100621.14
2023-03-29T08:24:43.374Z,100621.63
2023-03-29T08:28:46.775Z,100622.05
2023-03-29T08:32:52.878Z,100618.98
2023-03-29T08:36:59.387Z,100615.05
2023-03-29T08:41:15.122Z,100612.54
2023-03-29T08:45:29.512Z,100605.13
2023-03-29T08:49:34.165Z,100602.15
2023-03-29T08:53:52.807Z,100596.65
2023-03-29T08:57:57.651Z,100592.56
2023-03-29T09:02:04.522Z,100591.54
2023-03-29T09:06:11.013Z,100590.52
2023-03-29T09:10:21.401Z,100588.04
2023-03-29T09:14:47.577Z,100581.34
2023-03-29T09:19:16.603Z,100578.66
2023-03-29T09:23:34.440Z,100574.48
2023-03-29T09:27:41.524Z,100577.13
2023-03-29T09:31:45.543Z,100573.27
2023-03-29T09:36:01.722Z,100570.88
2023-03-29T09:40:12.799Z,100565.98
2023-03-29T09:44:31.794Z,100569.64
2023-03-29T09:48:40.112Z,100574.05
2023-03-29T09:52:43.522Z,100575.66
2023-03-29T09:56:46.805Z,100574.00
2023-03-29T10:00:51.246Z,100567.51
2023-03-29T10:05:04.098Z,100564.73
2023-03-29T10:09:15.689Z,100555.64
2023-03-29T10:13:23.884Z,100546.66
2023-03-29T10:17:29.864Z,100538.36
2023-03-29T10:21:33.132Z,100534.02
2023-03-29T10:25:42.940Z,100534.31
2023-03-29T10:29:47.305Z,100530.89
2023-03-29T10:33:56.732Z,100525.80
2023-03-29T10:38:03.743Z,100525.86
2023-03-29T10:42:10.670Z,100518.25
2023-03-29T10:46:27.820Z,100513.88
2023-03-29T10:50:38.321Z,100506.56
2023-03-29T10:54:41.717Z,100505.53
2023-03-29T10:59:03.726Z,100502.46
2023-03-29T11:03:25.888Z,100494.23
2023-03-29T11:07:33.631Z,100480.08
2023-03-29T11:11:44.617Z,100472.13
2023-03-29T11:16:25.766Z,100462.96
2023-03-29T11:20:42.250Z,100458.32
2023-03-29T11:25:00.259Z,100450.77
2023-03-29T11:29:13.174Z,100450.34
2023-03-29T11:33:35.094Z,100450.39
2023-03-29T11:38:08.466Z,100447.80
2023-03-29T11:42:20.961Z,100446.91
2023-03-29T11:46:30.725Z,100440.92
2023-03-29T11:50:50.673Z,100435.40
2023-03-29T11:55:03.167Z,100422.67
2023-03-29T11:59:16.990Z,100419.90
2023-03-29T12:03:38.855Z,100415.70
2023-03-29T12:08:01.767Z,100407.11
2023-03-29T12:12:10.366Z,100401.94
2023-03-29T12:16:23.467Z,100399.89
2023-03-29T12:20:35.716Z,100394.58
2023-03-29T12:24:42.119Z,100389.42
2023-03-29T12:28:54.370Z,100384.44
2023-03-29T12:33:04.283Z,100379.31
2023-03-29T12:37:17.361Z,100375.75
2023-03-29T12:41:24.174Z,100366.50
2023-03-29T12:45:38.492Z,100366.42
2023-03-29T12:49:42.086Z,100361.48
2023-03-29T12:53:54.182Z,100355.48
2023-03-29T12:58:06.168Z,100359.02
2023-03-29T13:02:15.614Z,100359.17
2023-03-29T13:06:33.477Z,100356.57
2023-03-29T13:10:43.236Z,100356.58
2023-03-29T13:15:08.107Z,100350.15
2023-03-29T13:19:20.538Z,100350.71
2023-03-29T13:23:48.721Z,100346.84
2023-03-29T13:28:03.275Z,100341.90
2023-03-29T13:32:22.795Z,100340.01
2023-03-29T13:36:58.520Z,100338.61
2023-03-29T13:41:25.704Z,100334.84
2023-03-29T13:45:30.845Z,100328.67
2023-03-29T13:49:36.081Z,100326.37
2023-03-29T13:53:47.178Z,100324.81
2023-03-29T13:58:01.123Z,100319.23
2023-03-29T14:02:06.672Z,100316.12
2023-03-29T14:06:12.888Z,100319.86
2023-03-29T14:10:21.670Z,100327.42
2023-03-29T14:14:28.165Z,100328.78
2023-03-29T14:18:37.853Z,100325.47
2023-03-29T14:22:43.997Z,100321.75
2023-03-29T14:26:48.015Z,100318.26
2023-03-29T14:30:52.917Z,100317.59
2023-03-29T14:34:56.868Z,100307.09
2023-03-29T14:39:08.323Z,100298.95
2023-03-29T14:43:17.942Z,100292.98
2023-03-29T14:47:30.899Z,100298.75
2023-03-29T14:51:35.022Z,100300.75
2023-03-29T14:55:39.056Z,100299.72
2023-03-29T14:59:43.437Z,100297.77
2023-03-29T15:03:56.731Z,100299.95
2023-03-29T15:08:01.882Z,100297.56
2023-03-29T15:12:05.403Z,100287.25
2023-03-29T15:16:12.391Z,100289.55
2023-03-29T15:20:29.843Z,100288.77
2023-03-29T15:24:34.317Z,100292.01
2023-03-29T15:28:49.028Z,100302.52
2023-03-29T15:32:53.432Z,100298.40
2023-03-29T15:37:00.014Z,100291.05
2023-03-29T15:41:04.216Z,100286.55
2023-03-29T15:45:14.790Z,100287.55
2023-03-29T15:49:18.176Z,100289.13
2023-03-29T15:53:23.900Z,100289.69
2023-03-29T15:57:27.422Z,100293.44
2023-03-29T16:01:37.802Z,100299.67
2023-03-29T16:05:43.573Z,100295.14
2023-03-29T16:09:47.616Z,100281.91
2023-03-29T16:13:51.698Z,100283.83
2023-03-29T16:17:55.144Z,100285.83
2023-03-29T16:22:00.450Z,100289.39
2023-03-29T16:26:05.346Z,100291.07
2023-03-29T16:30:11.257Z,100287.67
2023-03-29T16:34:16.525Z,100284.02
2023-03-29T16:38:21.912Z,100286.02
2023-03-29T16:42:25.190Z,100281.80
2023-03-29T16:46:28.563Z,100278.30
2023-03-29T16:50:31.987Z,100275.83
2023-03-29T16:54:35.293Z,100277.45
2023-03-29T16:58:42.709Z,100276.36
2023-03-29T17:02:50.015Z,100266.85
2023-03-29T17:06:54.279Z,100262.70
2023-03-29T17:10:57.620Z,100258.39
2023-03-29T17:15:01.192Z,100251.13
2023-03-29T17:19:05.424Z,100248.15
2023-03-29T17:23:09.078Z,100250.08
2023-03-29T17:27:12.398Z,100244.91
2023-03-29T17:31:16.369Z,100247.00
2023-03-29T17:35:19.868Z,100250.12
2023-03-29T17:39:25.266Z,100249.55
2023-03-29T17:43:29.287Z,100251.79
2023-03-29T17:47:32.798Z,100251.14
2023-03-29T17:51:37.508Z,100255.09
2023-03-29T17:55:41.206Z,100257.33
2023-03-29T17:59:44.432Z,100257.52
2023-03-29T18:03:48.839Z,100256.85
2023-03-29T18:07:52.360Z,100252.98
2023-03-29T18:11:55.767Z,100261.44
2023-03-29T18:15:59.663Z,100260.16
2023-03-29T18:20:09.561Z,100252.88
2023-03-29T18:24:14.471Z,100252.64
2023-03-29T18:28:18.433Z,100250.76
2023-03-29T18:32:21.918Z,100253.28
2023-03-29T18:36:25.958Z,100255.77
2023-03-29T18:40:30.932Z,100255.95
2023-03-29T18:44:34.193Z,100252.77
2023-03-29T18:48:41.502Z,100254.41
2023-03-29T18:52:45.097Z,100252.59
2023-03-29T18:56:48.889Z,100258.50
2023-03-29T19:00:52.515Z,100253.79
2023-03-29T19:04:55.904Z,100247.78
2023-03-29T19:09:02.258Z,100247.56
2023-03-29T19:13:06.696Z,100245.36
2023-03-29T19:17:10.481Z,100240.85
2023-03-29T19:21:15.413Z,100236.94
2023-03-29T19:25:19.247Z,100235.54
2023-03-29T19:29:23.118Z,100231.65
2023-03-29T19:33:26.992Z,100228.05
2023-03-29T19:37:31.022Z,100231.40
2023-03-29T19:41:34.725Z,100228.30
2023-03-29T19:45:38.070Z,100224.02
2023-03-29T19:49:41.456Z,100218.23
2023-03-29T19:53:45.650Z,100221.27
2023-03-29T19:57:50.364Z,100213.42
2023-03-29T20:01:57.617Z,100210.33
2023-03-29T20:06:01.400Z,100206.96
2023-03-29T20:10:05.252Z,100213.55
2023-03-29T20:14:08.856Z,100211.03
2023-03-29T20:18:12.451Z,100210.56
2023-03-29T20:22:16.158Z,100212.12
2023-03-29T20:26:19.344Z,100210.46
2023-03-29T20:30:22.841Z,100206.73
2023-03-29T20:34:26.543Z,100205.10
2023-03-29T20:38:29.870Z,100199.69
2023-03-29T20:42:34.697Z,100186.10
2023-03-29T20:46:38.107Z,100181.70
2023-03-29T20:50:41.451Z,100178.42
2023-03-29T20:54:45.729Z,100178.73
2023-03-29T20:58:49.006Z,100169.16
2023-03-29T21:02:58.858Z,100168.16
2023-03-29T21:07:05.350Z,100170.01
2023-03-29T21:11:11.075Z,100166.63
2023-03-29T21:15:14.777Z,100165.45
2023-03-29T21:19:18.419Z,100157.53
2023-03-29T21:23:21.886Z,100151.83
2023-03-29T21:27:25.481Z,100149.29
2023-03-29T21:31:28.785Z,100151.65
2023-03-29T21:35:35.845Z,100149.18
2023-03-29T21:39:39.095Z,100142.83
2023-03-29T21:43:42.637Z,100139.40
2023-03-29T21:47:46.423Z,100138.93
2023-03-29T21:51:49.695Z,100134.06
2023-03-29T21:55:53.162Z,100128.20
2023-03-29T21:59:56.952Z,100125.54
2023-03-29T22:04:00.377Z,100119.45
2023-03-29T22:08:05.519Z,100111.80
2023-03-29T22:12:10.184Z,100104.75
2023-03-29T22:16:16.962Z,100103.52
2023-03-29T22:20:20.564Z,100099.81
2023-03-29T22:24:24.648Z,100091.29
2023-03-29T22:28:27.866Z,100088.09
2023-03-29T22:32:32.543Z,100085.56
2023-03-29T22:36:37.006Z,100080.45
2023-03-29T22:40:41.378Z,100076.68
2023-03-29T22:44:45.365Z,100076.90
2023-03-29T22:48:49.102Z,100080.06
2023-03-29T22:52:52.992Z,100075.83
2023-03-29T22:56:58.477Z,100074.84
2023-03-29T23:01:03.394Z,100075.38
2023-03-29T23:05:08.376Z,100069.23
2023-03-29T23:09:12.276Z,100065.02
2023-03-29T23:13:23.744Z,100060.86
2023-03-29T23:17:27.547Z,100061.84
2023-03-29T23:21:31.101Z,100055.39
2023-03-29T23:25:34.542Z,100057.90
2023-03-29T23:29:38.694Z,100050.13
2023-03-29T23:33:43.070Z,100042.23
2023-03-29T23:37:47.935Z,100038.32
2023-03-29T23:41:51.882Z,100032.89
2023-03-29T23:46:02.056Z,100024.95
2023-03-29T23:50:06.974Z,100023.54
2023-03-29T23:54:10.236Z,100023.95
2023-03-29T23:58:14.446Z,100021.51
